Time;durP1;ratioP1;P1;durP2;ratioP2;P2;SDS_P1;SDS_P2;PMS_P1;PMS_P2;Temp;Humidity;BMP_temperature;BMP_pressure;BME280_temperature;BME280_humidity;BME280_pressure;Samples;Min_cycle;Max_cycle;Signal;HPM_P1;HPM_P2
2022/01/13 00:00:18;;;;;;;;;17.75;15.25;;;;;11.61;39.62;100187.69;6310222;22;102875;-85
2022/01/13 00:02:46;;;;;;;;;15.75;14.50;;;;;11.59;39.75;100174.28;6307165;22;104110;-85
2022/01/13 00:05:13;;;;;;;;;18.50;15.00;;;;;11.58;39.41;100171.75;6302756;22;102530;-85
2022/01/13 00:07:40;;;;;;;;;20.00;15.75;;;;;11.57;39.50;100176.31;6306234;22;102382;-85
2022/01/13 00:10:08;;;;;;;;;15.25;14.25;;;;;11.56;39.35;100171.09;6313789;22;102619;-86
2022/01/13 00:12:40;;;;;;;;;18.75;17.25;;;;;11.49;39.45;100165.47;6303820;22;104010;-85
2022/01/13 00:15:22;;;;;;;;;22.00;18.00;;;;;11.45;39.57;100161.41;6271502;22;102234;-85
2022/01/13 00:26:14;;;;;;;;;17.75;14.75;;;;;11.48;39.74;100163.78;6237470;22;102098;-85
2022/01/13 00:28:44;;;;;;;;;18.25;14.75;;;;;11.48;39.73;100161.06;6282780;22;103854;-85
2022/01/13 00:31:11;;;;;;;;;20.50;17.75;;;;;11.46;39.82;100165.81;6312977;22;102455;-85
2022/01/13 00:33:44;;;;;;;;;14.50;13.75;;;;;11.47;40.25;100181.06;6310749;22;102831;-77
2022/01/13 00:36:11;;;;;;;;;21.75;15.75;;;;;11.47;40.01;100197.31;6304244;22;102709;-78
2022/01/13 00:38:38;;;;;;;;;19.75;14.00;;;;;11.47;39.60;100191.06;6310091;22;102159;-78
2022/01/13 00:41:05;;;;;;;;;17.50;14.75;;;;;11.46;39.52;100181.22;6299644;22;102032;-78
2022/01/13 00:43:36;;;;;;;;;18.25;13.75;;;;;11.45;40.24;100183.09;6304339;22;104027;-78
2022/01/13 00:46:04;;;;;;;;;17.00;14.75;;;;;11.42;39.98;100196.97;6305143;22;102262;-78
2022/01/13 00:48:31;;;;;;;;;18.00;15.00;;;;;11.43;39.90;100195.13;6304967;22;102274;-78
2022/01/13 00:50:58;;;;;;;;;15.50;15.00;;;;;11.41;39.98;100197.97;6308681;22;102638;-78
2022/01/13 00:53:25;;;;;;;;;20.25;14.00;;;;;11.41;39.85;100214.22;6305163;22;103990;-78
2022/01/13 00:55:58;;;;;;;;;20.75;16.50;;;;;11.40;39.80;100215.25;6304043;22;102260;-78
2022/01/13 00:58:29;;;;;;;;;18.50;15.25;;;;;11.40;39.92;100220.66;6252676;22;102449;-79
2022/01/13 01:00:57;;;;;;;;;24.75;17.00;;;;;11.40;40.06;100225.22;6250415;22;102826;-79
2022/01/13 01:03:24;;;;;;;;;11.50;9.75;;;;;11.34;39.94;100218.63;6252881;22;103919;-78
2022/01/13 01:05:51;;;;;;;;;16.00;15.50;;;;;11.32;40.20;100209.81;6275430;22;102107;-79
2022/01/13 01:08:18;;;;;;;;;20.00;17.50;;;;;11.26;40.12;100206.94;6287115;22;103258;-78
2022/01/13 01:10:48;;;;;;;;;24.25;17.75;;;;;11.24;40.10;100207.09;6298012;22;102575;-79
2022/01/13 01:13:19;;;;;;;;;22.00;18.50;;;;;11.25;39.94;100225.03;6286839;22;108559;-78
2022/01/13 01:15:50;;;;;;;;;16.25;15.00;;;;;11.29;39.87;100231.81;6288616;22;102362;-78
2022/01/13 01:18:31;;;;;;;;;19.50;15.50;;;;;11.30;40.13;100238.09;6306286;22;102119;-78
2022/01/13 01:21:31;;;;;;;;;18.50;14.25;;;;;11.33;40.16;100245.88;6309299;22;102088;-78
2022/01/13 01:26:44;;;;;;;;;18.00;15.50;;;;;11.30;40.11;100238.91;6281011;22;102573;-79
2022/01/13 01:31:49;;;;;;;;;16.25;15.00;;;;;11.30;39.67;100249.75;6296839;22;102469;-79
2022/01/13 01:36:45;;;;;;;;;13.00;9.00;;;;;11.32;39.95;100226.06;6256508;22;102114;-79
2022/01/13 01:39:12;;;;;;;;;19.75;18.00;;;;;11.32;39.85;100212.53;6297500;22;102392;-79
2022/01/13 01:41:45;;;;;;;;;22.00;16.50;;;;;11.33;39.81;100200.69;6295938;22;104439;-79
2022/01/13 01:44:38;;;;;;;;;18.25;16.50;;;;;11.34;39.78;100196.97;6295749;22;103979;-86
2022/01/13 01:47:05;;;;;;;;;19.50;15.50;;;;;11.34;40.03;100205.09;6298900;22;103020;-86
2022/01/13 01:49:38;;;;;;;;;20.50;17.50;;;;;11.34;39.78;100204.25;6303161;22;102328;-86
2022/01/13 01:52:07;;;;;;;;;20.25;18.00;;;;;11.33;39.99;100216.94;6309124;22;102161;-86
2022/01/13 01:54:34;;;;;;;;;27.00;19.00;;;;;11.30;39.65;100217.25;6309379;22;103068;-85
2022/01/13 01:57:01;;;;;;;;;20.50;18.75;;;;;11.25;39.85;100213.38;6308879;22;102580;-86
2022/01/13 01:59:31;;;;;;;;;25.00;18.25;;;;;11.22;39.82;100181.19;6304133;22;103080;-86
2022/01/13 02:01:58;;;;;;;;;17.00;14.25;;;;;11.22;39.98;100163.09;6256612;22;102013;-86
2022/01/13 02:04:26;;;;;;;;;20.75;18.25;;;;;11.21;40.05;100164.13;6259734;22;104240;-86
2022/01/13 02:06:54;;;;;;;;;17.25;15.00;;;;;11.22;40.02;100179.31;6281096;22;102523;-86
2022/01/13 02:09:22;;;;;;;;;13.00;13.00;;;;;11.24;40.20;100177.31;6236369;22;102297;-86
2022/01/13 02:11:53;;;;;;;;;18.50;18.00;;;;;11.26;39.93;100166.31;6220664;22;102511;-79
2022/01/13 02:16:51;;;;;;;;;18.25;16.25;;;;;11.26;40.34;100194.22;6307594;22;102338;-79
2022/01/13 02:19:19;;;;;;;;;21.25;18.50;;;;;11.25;39.92;100211.50;6302101;22;102446;-79
2022/01/13 02:21:46;;;;;;;;;23.00;19.00;;;;;11.25;39.63;100200.69;6301714;22;102468;-78
2022/01/13 02:24:13;;;;;;;;;18.75;15.75;;;;;11.24;40.30;100217.06;6277209;22;103989;-78
2022/01/13 02:26:40;;;;;;;;;19.25;14.50;;;;;11.24;40.09;100226.06;6303415;22;102268;-79
2022/01/13 02:29:07;;;;;;;;;17.25;14.00;;;;;11.22;40.33;100217.22;6293488;22;102878;-79
2022/01/13 02:31:35;;;;;;;;;21.75;17.00;;;;;11.21;40.21;100185.78;6290435;22;102484;-79
2022/01/13 02:34:02;;;;;;;;;19.75;17.00;;;;;11.19;39.88;100158.00;6293970;22;103935;-79
2022/01/13 02:36:30;;;;;;;;;19.50;15.50;;;;;11.19;40.05;100152.59;6298331;22;102011;-78
2022/01/13 02:38:58;;;;;;;;;15.00;14.00;;;;;11.16;39.82;100139.41;6303936;22;104651;-78
2022/01/13 02:41:25;;;;;;;;;20.00;17.50;;;;;11.17;40.01;100146.50;6306557;22;102449;-79
2022/01/13 02:43:53;;;;;;;;;19.75;15.50;;;;;11.15;40.37;100148.53;6307800;22;104144;-78
2022/01/13 02:49:00;;;;;;;;;19.75;15.00;;;;;11.11;40.35;100144.47;6273080;22;102139;-79
2022/01/13 02:51:27;;;;;;;;;17.75;14.75;;;;;11.08;40.25;100137.50;6290979;22;102527;-78
2022/01/13 02:53:54;;;;;;;;;21.50;17.75;;;;;11.05;40.33;100150.53;6282968;22;103991;-79
2022/01/13 02:56:21;;;;;;;;;14.50;14.00;;;;;11.06;40.16;100161.22;6281568;22;101991;-79
2022/01/13 02:58:48;;;;;;;;;21.50;15.25;;;;;11.07;40.38;100162.91;6309637;22;102386;-78
2022/01/13 03:01:15;;;;;;;;;21.75;14.75;;;;;11.09;40.44;100171.69;6308456;22;102606;-78
2022/01/13 03:03:44;;;;;;;;;20.00;18.00;;;;;11.13;40.35;100166.78;6306207;22;104152;-78
2022/01/13 03:06:12;;;;;;;;;16.50;13.00;;;;;11.13;40.36;100164.94;6306385;22;102150;-78
2022/01/13 03:08:42;;;;;;;;;20.25;18.00;;;;;11.18;40.35;100169.84;6276131;22;102260;-79
2022/01/13 03:11:10;;;;;;;;;12.25;12.00;;;;;11.19;40.15;100160.72;6306931;22;102201;-79
2022/01/13 03:13:37;;;;;;;;;19.50;16.00;;;;;11.23;40.43;100167.50;6300865;22;104381;-79
2022/01/13 03:16:07;;;;;;;;;16.50;13.25;;;;;11.29;39.85;100171.41;6310166;22;102251;-78
2022/01/13 03:18:35;;;;;;;;;20.25;17.00;;;;;11.32;40.04;100171.06;6308947;22;101968;-79
2022/01/13 03:21:03;;;;;;;;;15.00;13.25;;;;;11.36;39.89;100157.00;6303734;22;102361;-79
2022/01/13 03:23:30;;;;;;;;;15.50;14.25;;;;;11.38;39.77;100160.41;6303603;22;103996;-79
2022/01/13 03:25:57;;;;;;;;;24.50;17.25;;;;;11.39;40.02;100161.25;6267504;22;102082;-79
2022/01/13 03:28:39;;;;;;;;;18.50;14.25;;;;;11.43;39.93;100158.03;6304678;22;102239;-78
2022/01/13 03:31:07;;;;;;;;;17.75;15.00;;;;;11.46;39.79;100152.28;6304697;22;102147;-79
2022/01/13 03:33:34;;;;;;;;;13.50;12.00;;;;;11.51;40.33;100147.22;6281576;22;103569;-79
2022/01/13 03:36:04;;;;;;;;;14.00;13.00;;;;;11.53;39.75;100145.16;6312903;22;102610;-78
2022/01/13 03:38:31;;;;;;;;;14.25;12.25;;;;;11.54;40.00;100149.56;6308249;22;102510;-79
2022/01/13 03:40:58;;;;;;;;;15.00;15.00;;;;;11.56;40.24;100136.72;6310478;22;102101;-78
2022/01/13 03:43:25;;;;;;;;;14.50;10.50;;;;;11.59;39.83;100139.06;6300565;22;103749;-79
2022/01/13 03:45:52;;;;;;;;;16.25;15.00;;;;;11.62;39.73;100144.16;6309516;22;101894;-79
2022/01/13 03:48:19;;;;;;;;;16.25;15.00;;;;;11.66;39.93;100143.81;6312034;22;102120;-79
2022/01/13 03:50:46;;;;;;;;;15.50;13.00;;;;;11.69;39.75;100144.31;6280053;22;102235;-78
2022/01/13 03:53:28;;;;;;;;;15.75;13.00;;;;;11.73;40.06;100139.44;6267754;22;103980;-78
2022/01/13 03:56:01;;;;;;;;;19.00;14.50;;;;;11.76;39.96;100137.22;6304394;22;102121;-78
2022/01/13 03:58:50;;;;;;;;;16.50;15.00;;;;;11.79;39.59;100147.75;6277366;22;103704;-79
2022/01/13 04:01:45;;;;;;;;;20.75;14.00;;;;;11.83;39.84;100153.66;6301462;22;102645;-79
2022/01/13 04:04:13;;;;;;;;;16.25;13.00;;;;;11.83;39.86;100157.22;6297089;22;107641;-78
2022/01/13 04:06:41;;;;;;;;;16.75;12.75;;;;;11.86;39.27;100154.16;6277052;22;102336;-78
2022/01/13 04:09:20;;;;;;;;;19.75;12.75;;;;;11.88;39.28;100145.88;6177332;22;104626;-78
2022/01/13 04:11:47;;;;;;;;;15.50;13.50;;;;;11.91;40.20;100140.09;6212584;22;102135;-78
2022/01/13 04:14:14;;;;;;;;;16.25;12.25;;;;;11.95;39.92;100141.44;6304738;22;104000;-79
2022/01/13 04:16:41;;;;;;;;;20.75;17.00;;;;;11.95;39.61;100144.16;6311346;22;102257;-79
2022/01/13 04:19:08;;;;;;;;;14.00;13.00;;;;;11.95;40.04;100145.00;6306702;22;104096;-79
2022/01/13 04:21:38;;;;;;;;;17.50;14.25;;;;;11.96;39.27;100148.56;6307394;22;102647;-79
2022/01/13 04:24:10;;;;;;;;;17.25;13.50;;;;;11.97;39.65;100147.53;6306784;22;103909;-79
2022/01/13 04:26:39;;;;;;;;;15.75;14.00;;;;;11.98;39.80;100151.94;6268991;22;102504;-79
2022/01/13 04:30:00;;;;;;;;;17.00;14.00;;;;;11.97;39.61;100142.13;6300953;22;102317;-79
2022/01/13 04:31:56;;;;;;;;;14.00;12.50;;;;;11.99;39.81;100137.34;6285118;22;102619;-79
2022/01/13 04:34:23;;;;;;;;;16.75;15.00;;;;;12.02;39.66;100143.28;6304498;22;104106;-78
2022/01/13 04:36:51;;;;;;;;;15.50;14.00;;;;;12.02;39.79;100137.03;6306754;22;102025;-79
2022/01/13 04:39:18;;;;;;;;;13.50;12.75;;;;;12.01;40.17;100138.03;6293353;22;102232;-79
2022/01/13 04:41:47;;;;;;;;;17.25;15.00;;;;;12.00;40.02;100139.91;6307992;22;102400;-78
2022/01/13 04:44:18;;;;;;;;;10.25;10.00;;;;;12.01;39.25;100127.19;6303289;22;104053;-79
2022/01/13 04:46:45;;;;;;;;;17.00;13.00;;;;;11.99;39.96;100126.50;6308213;22;102201;-79
2022/01/13 04:49:12;;;;;;;;;20.25;16.25;;;;;11.99;39.15;100126.50;6299798;22;102440;-79
2022/01/13 04:51:40;;;;;;;;;13.00;10.00;;;;;11.98;39.41;100135.66;6313531;22;102589;-78
2022/01/13 04:54:07;;;;;;;;;15.50;12.75;;;;;11.97;39.96;100125.84;6304950;22;103922;-78
2022/01/13 04:57:02;;;;;;;;;15.25;14.00;;;;;11.97;39.74;100123.16;6311869;22;102562;-79
2022/01/13 04:59:32;;;;;;;;;9.25;8.00;;;;;11.97;39.43;100120.44;6303915;22;102018;-78
2022/01/13 05:02:00;;;;;;;;;18.25;16.00;;;;;11.96;39.84;100111.47;6309481;22;102054;-79
2022/01/13 05:04:28;;;;;;;;;16.00;13.00;;;;;11.95;39.32;100122.47;6304365;22;104137;-79
2022/01/13 05:06:55;;;;;;;;;16.00;13.00;;;;;11.93;39.54;100114.50;6304758;22;102157;-79
2022/01/13 05:09:21;;;;;;;;;14.25;13.00;;;;;11.91;39.94;100121.13;6311515;22;102055;-77
2022/01/13 05:11:48;;;;;;;;;13.00;11.50;;;;;11.91;39.77;100119.25;6298419;22;102134;-78
2022/01/13 05:14:15;;;;;;;;;16.25;15.00;;;;;11.88;39.67;100135.03;6271066;22;103775;-78
2022/01/13 05:19:21;;;;;;;;;14.25;13.25;;;;;11.84;39.61;100133.69;6308827;22;102328;-77
2022/01/13 05:24:25;;;;;;;;;14.25;10.50;;;;;11.82;39.97;100139.25;6280026;22;108724;-78
2022/01/13 05:26:52;;;;;;;;;16.00;13.75;;;;;11.81;40.93;100128.56;6313295;22;102160;-85
2022/01/13 05:29:20;;;;;;;;;15.50;14.25;;;;;11.82;40.02;100130.28;6306821;22;102037;-85
2022/01/13 05:31:49;;;;;;;;;16.25;14.50;;;;;11.80;39.93;100133.16;6314634;22;102547;-86
2022/01/13 05:34:16;;;;;;;;;14.00;12.25;;;;;11.79;39.75;100134.19;6310428;22;103668;-86
2022/01/13 05:37:03;;;;;;;;;13.00;10.00;;;;;11.77;39.67;100129.94;6281026;22;102151;-86
2022/01/13 05:39:30;;;;;;;;;16.75;14.25;;;;;11.78;40.01;100123.50;6303938;22;102310;-86
2022/01/13 05:41:57;;;;;;;;;13.00;11.50;;;;;11.78;40.20;100126.22;6315150;22;102077;-86
2022/01/13 05:44:24;;;;;;;;;16.50;14.00;;;;;11.76;39.90;100120.13;6304270;22;104007;-80
2022/01/13 05:46:51;;;;;;;;;11.25;10.00;;;;;11.74;40.14;100117.59;6315517;22;102427;-86
2022/01/13 05:49:18;;;;;;;;;19.00;13.75;;;;;11.74;40.10;100111.31;6307527;22;102025;-85
2022/01/13 05:51:45;;;;;;;;;15.00;14.00;;;;;11.72;40.70;100119.63;6307711;22;102125;-86
2022/01/13 05:54:12;;;;;;;;;10.75;8.75;;;;;11.73;39.80;100115.03;6303494;22;103946;-86
2022/01/13 05:56:39;;;;;;;;;15.25;12.75;;;;;11.71;40.12;100117.88;6307848;22;102063;-86
2022/01/13 05:59:06;;;;;;;;;16.50;15.50;;;;;11.70;40.12;100127.06;6308535;22;101937;-86
2022/01/13 06:01:33;;;;;;;;;16.75;13.75;;;;;11.69;40.14;100117.22;6306572;22;103294;-86
2022/01/13 06:04:01;;;;;;;;;14.75;13.50;;;;;11.64;40.02;100106.91;6309052;22;103956;-86
2022/01/13 06:06:28;;;;;;;;;13.25;9.75;;;;;11.62;40.00;100098.09;6280472;22;102155;-86
2022/01/13 06:08:55;;;;;;;;;9.00;8.00;;;;;11.59;39.88;100089.47;6281542;22;102536;-81
2022/01/13 06:11:23;;;;;;;;;13.00;11.25;;;;;11.59;40.03;100101.16;6286814;22;102854;-86
2022/01/13 06:13:50;;;;;;;;;10.50;10.25;;;;;11.55;40.05;100107.06;6275603;22;108962;-86
2022/01/13 06:16:17;;;;;;;;;12.75;10.00;;;;;11.57;40.44;100116.72;6278868;22;102390;-86
2022/01/13 06:18:44;;;;;;;;;13.75;12.00;;;;;11.57;40.24;100116.72;6254608;22;102146;-78
2022/01/13 06:21:11;;;;;;;;;14.75;13.00;;;;;11.58;40.64;100101.31;6304960;22;102164;-79
2022/01/13 06:23:38;;;;;;;;;17.25;12.00;;;;;11.60;40.20;100105.56;6304185;22;104069;-79
2022/01/13 06:26:06;;;;;;;;;12.50;12.25;;;;;11.62;40.62;100103.50;6313085;22;103844;-78
2022/01/13 06:28:33;;;;;;;;;15.25;12.75;;;;;11.62;40.14;100098.09;6309437;22;102136;-79
2022/01/13 06:31:00;;;;;;;;;12.75;11.00;;;;;11.61;39.94;100101.00;6314650;22;102406;-79
2022/01/13 06:33:28;;;;;;;;;15.50;13.00;;;;;11.63;40.02;100107.91;6277827;22;103980;-78
2022/01/13 06:35:55;;;;;;;;;13.50;13.00;;;;;11.62;40.01;100119.75;6311098;22;102063;-78
2022/01/13 06:38:23;;;;;;;;;16.00;12.50;;;;;11.61;39.99;100120.81;6313992;22;102054;-79
2022/01/13 06:41:40;;;;;;;;;13.50;13.50;;;;;11.63;40.16;100121.47;6310034;22;102107;-79
2022/01/13 06:44:07;;;;;;;;;17.75;13.50;;;;;11.64;40.00;100134.00;6307979;22;107524;-78
2022/01/13 06:46:35;;;;;;;;;13.75;11.00;;;;;11.66;40.02;100141.13;6308850;22;104133;-79
2022/01/13 06:49:02;;;;;;;;;12.75;10.25;;;;;11.64;39.70;100139.41;6276820;22;102082;-78
2022/01/13 06:51:33;;;;;;;;;11.75;10.75;;;;;11.64;40.10;100147.53;6307552;22;102088;-86
2022/01/13 06:54:00;;;;;;;;;15.00;11.25;;;;;11.64;40.20;100152.97;6302598;22;104392;-86
2022/01/13 06:56:27;;;;;;;;;10.00;7.00;;;;;11.61;40.31;100145.19;6307081;22;102125;-86
2022/01/13 06:58:55;;;;;;;;;13.25;11.75;;;;;11.58;39.73;100142.78;6320621;22;102106;-86
2022/01/13 07:01:23;;;;;;;;;15.75;12.75;;;;;11.57;39.77;100143.81;6307460;22;102157;-86
2022/01/13 07:03:51;;;;;;;;;13.50;11.50;;;;;11.59;39.65;100147.19;6297712;22;108930;-86
2022/01/13 07:06:18;;;;;;;;;12.00;11.75;;;;;11.61;39.92;100138.91;6284258;22;102475;-86
2022/01/13 07:08:45;;;;;;;;;16.25;12.75;;;;;11.60;39.90;100143.50;6304924;22;102530;-86
2022/01/13 07:11:12;;;;;;;;;15.50;14.00;;;;;11.59;39.75;100133.66;6315443;22;102349;-86
2022/01/13 07:13:39;;;;;;;;;14.00;11.75;;;;;11.59;39.68;100127.38;6285855;22;104041;-79
2022/01/13 07:16:06;;;;;;;;;16.00;13.50;;;;;11.59;40.01;100125.53;6264518;22;102294;-86
2022/01/13 07:18:39;;;;;;;;;13.75;13.00;;;;;11.57;40.16;100135.69;6270218;22;102505;-86
2022/01/13 07:21:16;;;;;;;;;9.75;9.25;;;;;11.57;39.77;100138.38;6308346;22;102189;-85
2022/01/13 07:23:43;;;;;;;;;15.00;13.25;;;;;11.55;40.24;100145.84;6315432;22;103859;-85
2022/01/13 07:26:10;;;;;;;;;13.50;11.50;;;;;11.56;39.91;100152.13;6305250;22;102506;-84
2022/01/13 07:28:37;;;;;;;;;12.00;12.00;;;;;11.55;40.47;100143.16;6305727;22;101892;-86
2022/01/13 07:31:04;;;;;;;;;14.00;13.75;;;;;11.56;40.14;100131.31;6310621;22;102122;-86
2022/01/13 07:33:31;;;;;;;;;15.50;13.25;;;;;11.52;40.46;100129.94;6297505;22;104404;-86
2022/01/13 07:35:58;;;;;;;;;14.75;10.00;;;;;11.53;40.56;100137.03;6307925;22;102209;-85
2022/01/13 07:38:26;;;;;;;;;13.00;11.00;;;;;11.51;40.18;100128.25;6296681;22;102035;-83
2022/01/13 07:40:53;;;;;;;;;10.50;10.50;;;;;11.51;40.16;100122.84;6309623;22;102237;-85
2022/01/13 07:43:23;;;;;;;;;9.25;9.00;;;;;11.50;39.85;100123.00;6307499;22;104057;-86
2022/01/13 07:45:51;;;;;;;;;13.00;12.25;;;;;11.45;40.04;100118.09;6308099;22;102397;-85
2022/01/13 07:48:18;;;;;;;;;14.25;11.75;;;;;11.42;40.01;100098.63;6291652;22;101825;-85
2022/01/13 07:50:46;;;;;;;;;13.50;12.00;;;;;11.43;40.03;100098.47;6296324;22;104657;-85
2022/01/13 07:53:13;;;;;;;;;13.50;10.25;;;;;11.40;40.48;100093.38;6305523;22;103976;-86
2022/01/13 07:55:40;;;;;;;;;13.50;9.50;;;;;11.42;40.45;100096.75;6300789;22;102425;-85
2022/01/13 07:58:07;;;;;;;;;13.25;10.50;;;;;11.41;40.34;100089.66;6302177;22;102289;-85
2022/01/13 08:00:34;;;;;;;;;15.75;13.00;;;;;11.39;40.64;100078.13;6305370;22;102295;-86
2022/01/13 08:03:02;;;;;;;;;15.00;12.75;;;;;11.39;40.53;100070.00;6311806;22;103972;-85
2022/01/13 08:05:29;;;;;;;;;15.00;13.75;;;;;11.40;40.40;100051.88;6306105;22;102417;-85
2022/01/13 08:07:56;;;;;;;;;17.00;13.00;;;;;11.40;39.96;100055.44;6301119;22;102366;-82
2022/01/13 08:10:23;;;;;;;;;18.00;15.00;;;;;11.40;40.40;100050.03;6311810;22;102515;-86
2022/01/13 08:12:50;;;;;;;;;14.75;13.00;;;;;11.41;40.23;100037.34;6307781;22;103947;-85
2022/01/13 08:15:17;;;;;;;;;15.75;12.75;;;;;11.42;40.10;100037.19;6309109;22;102163;-78
2022/01/13 08:20:34;;;;;;;;;15.00;15.00;;;;;11.44;39.89;100037.84;6281799;22;102437;-77
2022/01/13 08:23:01;;;;;;;;;17.50;14.00;;;;;11.40;40.39;100055.44;6282770;22;104032;-78
2022/01/13 08:25:29;;;;;;;;;15.75;13.50;;;;;11.41;40.22;100073.41;6287809;22;102154;-79
2022/01/13 08:27:56;;;;;;;;;15.25;14.50;;;;;11.41;40.48;100067.97;6316555;22;102462;-78
2022/01/13 08:30:23;;;;;;;;;15.25;15.25;;;;;11.41;40.00;100073.41;6314467;22;102481;-78
2022/01/13 08:32:50;;;;;;;;;16.25;14.25;;;;;11.41;40.22;100062.56;6302743;22;103249;-79
2022/01/13 08:35:17;;;;;;;;;19.75;15.50;;;;;11.39;40.23;100059.16;6312506;22;102503;-79
2022/01/13 08:37:44;;;;;;;;;20.00;17.75;;;;;11.38;40.10;100078.31;6304494;22;102313;-78
2022/01/13 08:40:12;;;;;;;;;18.50;15.75;;;;;11.33;40.27;100065.28;6305505;22;103008;-79
2022/01/13 08:42:40;;;;;;;;;21.00;16.50;;;;;11.32;40.26;100069.00;6292811;22;104145;-79
2022/01/13 08:45:08;;;;;;;;;25.25;18.75;;;;;11.33;40.37;100075.28;6305829;22;104983;-79
2022/01/13 08:47:35;;;;;;;;;18.00;15.00;;;;;11.32;40.57;100078.97;6307984;22;102077;-79
2022/01/13 08:50:05;;;;;;;;;18.00;16.75;;;;;11.32;40.64;100074.41;6310294;22;102137;-79
2022/01/13 08:52:33;;;;;;;;;13.25;10.50;;;;;11.34;40.29;100080.53;6309361;22;104107;-79
2022/01/13 08:55:00;;;;;;;;;22.75;18.75;;;;;11.35;40.24;100079.47;6314231;22;102283;-86
2022/01/13 08:57:27;;;;;;;;;17.50;14.25;;;;;11.35;40.73;100084.06;6304474;22;101930;-85
2022/01/13 08:59:54;;;;;;;;;9.00;7.00;;;;;11.35;40.14;100100.28;6314496;22;102258;-86
2022/01/13 09:02:21;;;;;;;;;21.00;15.50;;;;;11.35;40.46;100103.84;6307917;22;104829;-86
2022/01/13 09:04:50;;;;;;;;;19.00;14.50;;;;;11.34;40.41;100094.06;6314674;22;102374;-86
2022/01/13 09:07:17;;;;;;;;;14.75;12.75;;;;;11.36;40.30;100073.06;6314938;22;102007;-86
2022/01/13 09:10:02;;;;;;;;;12.00;10.00;;;;;11.36;40.55;100064.94;6307664;22;102441;-86
2022/01/13 09:12:29;;;;;;;;;16.25;14.00;;;;;11.37;40.56;100066.63;6310470;22;103999;-86
2022/01/13 09:15:02;;;;;;;;;13.75;13.50;;;;;11.36;40.10;100054.09;6313195;22;102376;-85
2022/01/13 09:17:30;;;;;;;;;14.00;13.25;;;;;11.39;40.37;100061.06;6304024;22;102138;-85
2022/01/13 09:19:57;;;;;;;;;15.75;13.75;;;;;11.38;40.25;100060.22;6309129;22;102327;-85
2022/01/13 09:22:25;;;;;;;;;19.00;14.50;;;;;11.41;40.04;100059.00;6314257;22;102997;-85
2022/01/13 09:24:52;;;;;;;;;14.75;13.00;;;;;11.43;40.11;100049.72;6311660;22;102096;-85
2022/01/13 09:27:19;;;;;;;;;16.75;14.75;;;;;11.46;40.35;100054.78;6309476;22;102410;-85
2022/01/13 09:29:46;;;;;;;;;17.00;14.25;;;;;11.48;39.95;100041.88;6313777;22;102213;-85
2022/01/13 09:32:14;;;;;;;;;14.75;12.50;;;;;11.52;40.10;100037.84;6311162;22;104052;-77
2022/01/13 09:34:43;;;;;;;;;14.00;12.00;;;;;11.55;40.15;100042.91;6307002;22;102498;-78
2022/01/13 09:37:11;;;;;;;;;13.50;12.00;;;;;11.57;40.48;100051.69;6306627;22;102142;-77
2022/01/13 09:39:38;;;;;;;;;13.25;12.50;;;;;11.57;40.35;100043.56;6316201;22;102411;-78
2022/01/13 09:42:06;;;;;;;;;12.25;12.25;;;;;11.60;40.14;100045.09;6309909;22;104097;-77
2022/01/13 09:44:33;;;;;;;;;14.75;11.50;;;;;11.61;39.84;100044.09;6310906;22;102011;-85
2022/01/13 09:47:00;;;;;;;;;14.75;12.50;;;;;11.62;40.38;100038.47;6282360;22;102272;-85
2022/01/13 09:49:28;;;;;;;;;19.25;14.75;;;;;11.63;40.06;100037.47;6317980;22;109634;-78
2022/01/13 09:51:55;;;;;;;;;18.50;13.00;;;;;11.63;40.28;100042.88;6306598;22;103970;-85
2022/01/13 09:54:22;;;;;;;;;12.75;12.75;;;;;11.64;39.92;100035.59;6280270;22;102379;-85
2022/01/13 09:56:49;;;;;;;;;12.50;10.50;;;;;11.63;40.38;100033.91;6303638;22;102106;-85
2022/01/13 09:59:16;;;;;;;;;13.00;12.25;;;;;11.63;39.69;100032.06;6299885;22;102464;-85
2022/01/13 10:01:43;;;;;;;;;16.25;14.75;;;;;11.63;39.58;100029.34;6306096;22;103988;-85
2022/01/13 10:04:11;;;;;;;;;12.75;12.00;;;;;11.62;39.80;100011.38;6316783;22;102347;-85
2022/01/13 10:06:42;;;;;;;;;13.00;12.50;;;;;11.62;40.04;100011.38;6310764;22;102083;-85
2022/01/13 10:09:10;;;;;;;;;16.50;12.00;;;;;11.63;40.41;100007.66;6311830;22;102383;-85
2022/01/13 10:11:43;;;;;;;;;15.00;13.50;;;;;11.62;40.07;100000.56;6307433;22;104018;-86
2022/01/13 10:16:58;;;;;;;;;17.50;14.25;;;;;11.62;40.17;100000.56;6308951;22;102085;-77
2022/01/13 10:19:33;;;;;;;;;13.50;13.50;;;;;11.60;40.08;99994.47;6277604;22;102524;-78
2022/01/13 10:22:01;;;;;;;;;14.00;12.50;;;;;11.59;39.72;99987.38;6307825;22;108645;-77
2022/01/13 10:24:29;;;;;;;;;13.00;11.75;;;;;11.61;40.12;99989.91;6307094;22;102325;-78
2022/01/13 10:27:02;;;;;;;;;16.75;12.00;;;;;11.62;39.65;99987.00;6306956;22;102565;-85
2022/01/13 10:29:35;;;;;;;;;8.25;8.00;;;;;11.62;40.09;99989.72;6305358;22;102196;-82
2022/01/13 10:32:03;;;;;;;;;12.25;9.00;;;;;11.62;40.10;99981.59;6288332;22;110251;-85
2022/01/13 10:34:32;;;;;;;;;12.75;11.75;;;;;11.61;40.02;99973.66;6309137;22;102389;-85
2022/01/13 10:37:04;;;;;;;;;14.00;12.25;;;;;11.60;39.87;99970.09;6309930;22;101967;-79
2022/01/13 10:39:51;;;;;;;;;15.25;12.75;;;;;11.59;40.10;99968.41;6276566;22;102441;-78
2022/01/13 10:45:08;;;;;;;;;18.00;13.00;;;;;11.58;40.09;99964.00;6306626;22;102179;-79
2022/01/13 10:47:35;;;;;;;;;13.75;12.00;;;;;11.56;40.06;99963.34;6305308;22;102126;-79
2022/01/13 10:50:10;;;;;;;;;19.50;15.50;;;;;11.56;40.50;99967.91;6314791;22;102376;-78
2022/01/13 10:52:38;;;;;;;;;13.50;11.50;;;;;11.54;40.11;99970.78;6301569;22;103989;-79
2022/01/13 10:55:08;;;;;;;;;13.75;10.00;;;;;11.55;40.15;99977.91;6306457;22;102144;-79
2022/01/13 10:57:44;;;;;;;;;13.50;13.50;;;;;11.54;40.50;99968.06;6314822;22;102421;-86
2022/01/13 11:00:16;;;;;;;;;13.00;10.25;;;;;11.53;40.22;99960.97;6308804;22;102144;-86
2022/01/13 11:02:44;;;;;;;;;18.25;10.25;;;;;11.51;40.50;99963.00;6305865;22;103069;-79
2022/01/13 11:05:12;;;;;;;;;13.25;12.50;;;;;11.53;40.10;99947.41;6308464;22;102510;-78
2022/01/13 11:07:43;;;;;;;;;11.50;9.75;;;;;11.52;39.86;99942.19;6300908;22;102382;-79
2022/01/13 11:10:10;;;;;;;;;11.25;9.50;;;;;11.49;40.10;99943.38;6299189;22;102107;-86
2022/01/13 11:12:40;;;;;;;;;14.50;10.50;;;;;11.48;40.24;99933.53;6312861;22;103770;-86
2022/01/13 11:15:12;;;;;;;;;9.75;9.25;;;;;11.47;39.95;99948.13;6272933;22;102304;-86
2022/01/13 11:17:40;;;;;;;;;10.50;9.50;;;;;11.46;39.91;99943.72;6296908;22;102167;-86
2022/01/13 11:20:09;;;;;;;;;13.00;12.00;;;;;11.47;40.27;99939.16;6305444;22;102302;-86
2022/01/13 11:22:37;;;;;;;;;13.00;10.75;;;;;11.46;40.58;99946.44;6294861;22;104023;-86
2022/01/13 11:25:09;;;;;;;;;9.75;6.75;;;;;11.46;40.05;99932.91;6295725;22;102054;-86
2022/01/13 11:27:37;;;;;;;;;13.75;10.00;;;;;11.45;40.18;99920.38;6269490;22;102271;-85
2022/01/13 11:30:07;;;;;;;;;12.75;10.00;;;;;11.45;40.29;99920.38;6306370;22;102505;-86
2022/01/13 11:32:35;;;;;;;;;16.25;12.25;;;;;11.46;40.64;99922.06;6280588;22;103950;-86
2022/01/13 11:35:02;;;;;;;;;11.50;11.25;;;;;11.46;40.56;99926.63;6280663;22;102440;-86
2022/01/13 11:37:29;;;;;;;;;10.00;9.00;;;;;11.45;40.36;99925.78;6309037;22;102058;-79
2022/01/13 11:39:56;;;;;;;;;13.00;10.00;;;;;11.46;40.25;99913.94;6281322;22;102301;-86
2022/01/13 11:42:46;;;;;;;;;10.50;9.00;;;;;11.45;40.43;99917.66;6284039;22;109815;-86
2022/01/13 11:45:15;;;;;;;;;12.50;9.50;;;;;11.44;39.92;99921.38;6304261;22;102589;-85
2022/01/13 11:47:43;;;;;;;;;15.00;11.50;;;;;11.41;39.99;99894.66;6306967;22;102445;-86